Time;durP1;ratioP1;P1;durP2;ratioP2;P2;SDS_P1;SDS_P2;PMS_P1;PMS_P2;Temp;Humidity;BMP_temperature;BMP_pressure;BME280_temperature;BME280_humidity;BME280_pressure;Samples;Min_cycle;Max_cycle;Signal;HPM_P1;HPM_P2
2022/11/01 00:03:49;;;;;;;15.75;12.68;;;15.90;65.10;;;14.96;61.75;101301.53;12256292;19;20010;-87
2022/11/01 00:07:52;;;;;;;16.63;12.43;;;15.80;65.90;;;14.79;61.95;101256.13;12252888;19;20010;-86
2022/11/01 00:11:54;;;;;;;17.00;12.75;;;16.10;66.30;;;14.88;61.95;101249.47;12257176;19;20018;-86
2022/11/01 00:15:56;;;;;;;18.58;12.57;;;15.90;66.40;;;15.05;61.97;101261.50;12257358;19;20034;-86
2022/11/01 00:19:58;;;;;;;18.13;12.57;;;16.00;66.40;;;15.19;62.02;101276.38;12255590;19;20094;-85
2022/11/01 00:23:59;;;;;;;17.67;12.40;;;16.00;66.80;;;15.13;62.30;101246.06;12258024;19;20006;-87
2022/11/01 00:28:01;;;;;;;15.02;11.90;;;16.10;67.80;;;15.07;62.25;101211.41;12254936;19;20018;-87
2022/11/01 00:32:03;;;;;;;17.17;11.90;;;16.20;67.50;;;15.32;62.36;101232.53;12252411;19;20022;-87
2022/11/01 00:36:05;;;;;;;12.88;10.60;;;16.20;67.60;;;15.33;62.19;101220.19;12254111;19;20025;-87
2022/11/01 00:40:08;;;;;;;12.27;10.48;;;16.20;67.70;;;15.38;62.43;101233.91;12253335;19;20074;-86
2022/11/01 00:44:09;;;;;;;12.18;9.80;;;16.20;67.60;;;15.39;62.51;101244.34;12254840;19;20038;-86
2022/11/01 00:48:14;;;;;;;12.88;10.20;;;16.30;67.40;;;15.31;62.39;101206.31;12250829;19;20452;-86
2022/11/01 00:52:15;;;;;;;13.15;10.13;;;16.30;67.50;;;15.19;62.56;101179.88;12263655;19;20006;-86
2022/11/01 00:56:17;;;;;;;13.38;9.93;;;16.40;67.30;;;15.27;62.59;101184.63;12265735;19;20007;-86
2022/11/01 01:00:19;;;;;;;13.93;10.60;;;16.40;67.30;;;15.58;62.38;101243.94;12266264;19;20365;-87
2022/11/01 01:04:21;;;;;;;14.30;11.13;;;16.40;67.20;;;15.25;62.48;101174.19;12265868;19;20014;-87
2022/11/01 01:08:24;;;;;;;16.48;11.30;;;16.40;67.10;;;15.55;62.58;101211.69;12262436;19;20007;-86
2022/11/01 01:12:25;;;;;;;14.82;10.60;;;16.50;66.90;;;15.56;62.69;101214.22;12267727;19;20018;-86
2022/11/01 01:16:27;;;;;;;12.32;10.00;;;16.50;66.40;;;15.30;62.59;101165.16;12261752;19;20014;-87
2022/11/01 01:20:29;;;;;;;12.52;11.00;;;16.50;66.10;;;15.27;62.78;101156.53;12263684;19;20027;-87
2022/11/01 01:24:31;;;;;;;13.20;10.70;;;16.50;66.00;;;15.51;62.51;101183.91;12267100;19;20014;-86
2022/11/01 01:28:34;;;;;;;12.63;10.07;;;16.50;66.20;;;15.29;62.56;101150.31;12263003;19;20007;-86
2022/11/01 01:32:36;;;;;;;14.07;11.20;;;16.50;66.30;;;15.46;62.43;101165.78;12261375;19;20022;-86
2022/11/01 01:36:37;;;;;;;13.65;11.15;;;16.40;66.20;;;15.43;62.58;101145.78;12257494;19;20019;-86
2022/11/01 01:40:39;;;;;;;14.68;11.07;;;16.40;66.00;;;15.40;62.64;101132.00;12264760;19;20030;-86
2022/11/01 01:44:48;;;;;;;15.45;11.40;;;16.40;66.20;;;15.40;62.78;101127.56;12265648;19;20022;-86
2022/11/01 01:48:56;;;;;;;15.40;10.63;;;16.30;67.20;;;15.23;62.80;101112.97;12263385;19;20060;-86
2022/11/01 01:53:25;;;;;;;14.35;9.45;;;16.30;67.30;;;15.43;62.94;101145.78;12263395;19;20018;-85
2022/11/01 01:57:27;;;;;;;12.50;9.68;;;16.30;67.90;;;15.51;63.01;101149.69;12263120;19;20018;-86
2022/11/01 02:01:38;;;;;;;14.63;9.75;;;16.30;67.70;;;15.46;62.95;101142.94;12263051;19;20017;-86
2022/11/01 02:05:54;;;;;;;15.35;10.52;;;16.40;68.30;;;15.50;63.01;101135.69;12262844;19;20019;-86
2022/11/01 02:09:56;;;;;;;18.30;10.80;;;16.40;68.10;;;15.43;62.98;101130.00;12257729;19;20019;-86
2022/11/01 02:13:58;;;;;;;17.27;10.95;;;16.50;68.00;;;15.55;63.15;101132.72;12255559;19;20015;-85
2022/11/01 02:18:29;;;;;;;14.13;10.80;;;16.50;68.00;;;15.65;63.00;101139.88;12256656;19;20017;-86
2022/11/01 02:22:52;;;;;;;15.65;10.68;;;16.50;67.90;;;15.69;62.93;101137.91;12259404;19;20787;-86
2022/11/01 02:27:17;;;;;;;13.05;10.48;;;16.60;67.20;;;15.68;63.07;101123.00;12260952;19;20011;-86
2022/11/01 02:31:25;;;;;;;16.07;10.50;;;16.60;67.10;;;15.71;63.00;101136.00;12263030;19;20050;-86
2022/11/01 02:35:48;;;;;;;13.25;9.43;;;16.60;66.50;;;15.42;62.91;101080.94;12261208;19;20014;-86
2022/11/01 02:39:57;;;;;;;13.85;10.07;;;16.60;66.20;;;15.61;62.87;101106.81;12263879;19;20018;-86
2022/11/01 02:44:03;;;;;;;13.32;9.90;;;16.80;66.10;;;15.72;63.03;101105.25;12261847;19;20003;-86
2022/11/01 02:48:05;;;;;;;10.60;9.20;;;16.60;65.40;;;15.49;62.79;101078.72;12258646;19;20006;-86
2022/11/01 02:52:12;;;;;;;12.52;10.13;;;16.60;64.90;;;15.60;62.84;101099.84;12261868;19;20029;-86
2022/11/01 02:56:16;;;;;;;11.00;8.82;;;16.60;64.60;;;15.47;62.84;101094.63;12259596;19;20055;-86
2022/11/01 03:00:23;;;;;;;12.38;8.85;;;16.50;64.30;;;15.55;62.65;101098.50;12255067;19;20010;-86
2022/11/01 03:04:25;;;;;;;11.23;9.10;;;16.50;63.70;;;15.46;62.56;101092.09;12261074;19;20018;-86
2022/11/01 03:08:45;;;;;;;8.93;7.97;;;16.40;63.70;;;15.29;62.50;101087.19;12252927;19;20093;-86
2022/11/01 03:13:04;;;;;;;9.48;8.27;;;16.30;63.30;;;15.27;62.61;101088.09;12258057;19;20040;-86
2022/11/01 03:17:26;;;;;;;10.25;7.68;;;16.40;63.70;;;15.23;62.62;101096.34;12256926;19;20040;-86
2022/11/01 03:21:37;;;;;;;11.60;8.65;;;16.20;63.40;;;15.14;62.79;101078.53;12260872;19;20010;-86
2022/11/01 03:25:46;;;;;;;11.15;9.18;;;16.10;63.50;;;15.04;62.30;101066.03;12257674;19;20035;-86
2022/11/01 03:30:06;;;;;;;9.77;8.27;;;16.10;63.40;;;14.86;62.51;101051.50;12255618;19;20006;-86
2022/11/01 03:34:15;;;;;;;9.95;7.90;;;16.00;63.10;;;15.09;62.47;101106.94;12258677;19;20077;-86
2022/11/01 03:38:23;;;;;;;12.55;8.38;;;15.90;63.10;;;14.98;62.54;101126.91;12255173;19;20069;-86
2022/11/01 03:42:24;;;;;;;9.57;8.32;;;15.90;63.30;;;14.69;62.66;101078.06;12258101;19;20014;-86
2022/11/01 03:46:27;;;;;;;10.52;8.63;;;16.00;63.60;;;14.70;62.53;101083.22;12258585;19;20007;-86
2022/11/01 03:50:28;;;;;;;11.75;8.65;;;15.80;63.70;;;14.90;62.58;101105.56;12258873;19;20787;-86
2022/11/01 03:54:30;;;;;;;14.27;8.32;;;15.80;63.80;;;14.94;62.54;101116.72;12258814;19;20074;-86
2022/11/01 03:58:41;;;;;;;11.45;9.30;;;15.80;63.90;;;14.87;62.54;101095.25;12253431;19;20015;-86
2022/11/01 04:02:43;;;;;;;11.27;8.90;;;15.70;63.20;;;14.64;62.48;101061.78;12256285;19;20018;-86
2022/11/01 04:06:44;;;;;;;11.60;9.18;;;15.70;63.00;;;14.74;62.39;101102.25;12256913;19;20022;-86
2022/11/01 04:10:46;;;;;;;16.73;8.93;;;15.60;62.90;;;14.76;62.53;101101.22;12258082;19;20022;-85
2022/11/01 04:23:29;;;;;;;12.98;9.23;;;15.50;62.80;;;14.50;62.59;101076.66;12256969;19;20015;-86
2022/11/01 04:27:30;;;;;;;12.80;9.52;;;15.50;63.00;;;14.55;62.53;101092.97;12255975;19;20523;-85
2022/11/01 04:31:35;;;;;;;12.90;8.98;;;15.40;62.90;;;14.51;62.53;101086.22;12266210;19;20015;-86
2022/11/01 04:35:38;;;;;;;12.20;8.95;;;15.40;62.80;;;14.26;62.42;101058.09;12266684;19;20015;-87
2022/11/01 04:39:39;;;;;;;10.75;8.02;;;15.40;62.70;;;14.48;62.60;101110.06;12268250;19;20031;-86
2022/11/01 04:43:41;;;;;;;10.88;8.40;;;15.50;63.00;;;14.42;62.50;101104.34;12269807;19;20010;-86
2022/11/01 04:47:50;;;;;;;13.23;9.63;;;15.30;63.00;;;14.26;62.57;101073.00;12264115;19;20105;-86
2022/11/01 04:51:53;;;;;;;11.88;9.02;;;15.50;63.00;;;14.39;62.44;101090.50;12265109;19;20031;-86
2022/11/01 04:55:55;;;;;;;14.00;8.77;;;15.20;62.30;;;14.29;62.48;101091.19;12261699;19;20373;-86
2022/11/01 04:59:56;;;;;;;11.95;9.88;;;15.30;62.30;;;14.28;62.32;101079.81;12260301;19;20549;-86
2022/11/01 05:03:58;;;;;;;14.70;9.35;;;15.40;62.20;;;14.25;62.40;101087.91;12260149;19;20044;-85
2022/11/01 05:08:05;;;;;;;17.52;9.70;;;15.10;62.20;;;14.20;62.42;101094.41;12258308;19;20078;-86
2022/11/01 05:12:08;;;;;;;13.55;9.30;;;15.00;62.10;;;14.08;62.39;101061.91;12262156;19;20031;-86
2022/11/01 05:16:10;;;;;;;12.43;9.57;;;15.00;62.30;;;13.97;62.48;101059.13;12260312;19;20018;-86
2022/11/01 05:20:11;;;;;;;15.90;10.02;;;14.90;62.40;;;14.09;62.51;101077.53;12262070;19;20034;-87
2022/11/01 05:24:13;;;;;;;13.20;10.30;;;14.90;62.50;;;14.07;62.37;101063.69;12262646;19;20018;-86
2022/11/01 05:28:15;;;;;;;11.75;9.05;;;14.90;62.30;;;13.85;62.34;101039.72;12258591;19;20082;-86
2022/11/01 05:32:17;;;;;;;12.80;9.27;;;14.90;62.30;;;13.90;62.43;101070.00;12258303;19;20026;-87
2022/11/01 05:36:19;;;;;;;12.40;8.52;;;14.80;62.50;;;13.87;62.44;101074.59;12257624;19;20006;-86
2022/11/01 05:40:22;;;;;;;11.15;8.90;;;14.80;62.90;;;13.78;62.44;101049.78;12261988;19;20456;-86
2022/11/01 05:44:23;;;;;;;9.65;8.45;;;14.90;63.20;;;13.54;62.38;101007.56;12262679;19;20050;-86
2022/11/01 05:48:25;;;;;;;10.85;8.57;;;14.80;62.90;;;13.74;62.41;101056.16;12256695;19;20018;-86
2022/11/01 05:52:27;;;;;;;10.88;9.13;;;14.70;63.10;;;13.79;62.41;101076.88;12258009;19;20015;-86
2022/11/01 05:56:29;;;;;;;11.77;8.52;;;14.70;63.50;;;13.71;62.62;101066.84;12256916;19;20361;-85
2022/11/01 06:00:32;;;;;;;11.85;8.60;;;14.60;63.70;;;13.76;62.59;101075.28;12259132;19;20352;-86
2022/11/01 06:04:34;;;;;;;10.57;8.10;;;14.80;64.10;;;13.80;62.59;101081.19;12257866;19;20010;-86
2022/11/01 06:08:36;;;;;;;10.95;9.25;;;14.60;64.00;;;13.73;62.62;101062.38;12254294;19;20019;-85
2022/11/01 06:12:38;;;;;;;11.50;9.40;;;14.90;64.60;;;13.49;62.68;101022.75;12258182;19;20023;-86
2022/11/01 06:16:40;;;;;;;11.45;9.02;;;14.60;64.70;;;13.11;62.68;100968.25;12254440;19;20010;-86
2022/11/01 06:20:41;;;;;;;13.63;9.82;;;14.90;65.20;;;13.46;62.81;101015.91;12259281;19;20019;-86
2022/11/01 06:24:43;;;;;;;14.32;9.75;;;14.70;65.10;;;13.48;62.84;101016.66;12256628;19;20011;-86
2022/11/01 06:28:45;;;;;;;11.73;9.60;;;14.70;65.50;;;13.73;62.84;101054.50;12252005;19;20003;-85
2022/11/01 06:32:47;;;;;;;15.07;9.73;;;14.70;65.40;;;13.92;62.89;101081.25;12253634;19;20026;-86
2022/11/01 06:36:49;;;;;;;11.05;8.80;;;14.80;65.50;;;13.87;62.90;101054.44;12247709;19;20014;-85
2022/11/01 06:40:50;;;;;;;13.27;9.70;;;15.10;65.20;;;13.88;62.85;101061.41;12249005;19;20452;-85
2022/11/01 06:44:52;;;;;;;12.35;9.70;;;14.80;65.00;;;13.56;62.86;101003.06;12247272;19;20022;-85
2022/11/01 06:48:53;;;;;;;13.55;8.65;;;14.80;65.20;;;13.85;63.06;101058.97;12246884;19;20081;-86
2022/11/01 06:52:57;;;;;;;13.80;9.98;;;14.80;65.60;;;13.90;63.08;101075.25;12250816;19;20524;-84
2022/11/01 06:56:59;;;;;;;12.75;9.40;;;14.80;66.00;;;13.98;63.21;101084.44;12253561;19;20018;-84
2022/11/01 07:01:01;;;;;;;13.57;10.32;;;14.80;66.20;;;13.88;63.18;101052.66;12253149;19;20014;-85
2022/11/01 07:05:03;;;;;;;12.55;9.65;;;14.90;66.90;;;13.83;63.31;101033.75;12251566;19;20026;-86
2022/11/01 07:09:05;;;;;;;12.68;9.63;;;14.90;67.10;;;14.12;63.25;101058.13;12247682;19;20021;-84
2022/11/01 07:13:11;;;;;;;12.07;9.60;;;15.10;67.30;;;14.00;63.19;101049.25;12248650;19;20046;-85
2022/11/01 07:17:13;;;;;;;10.35;8.38;;;15.00;67.00;;;14.12;63.25;101095.75;12247385;19;20042;-85
2022/11/01 07:21:14;;;;;;;13.05;8.98;;;15.10;67.00;;;14.24;63.39;101109.88;12251208;19;20365;-89
2022/11/01 07:25:16;;;;;;;14.65;9.40;;;15.10;67.20;;;14.27;63.45;101107.03;12251320;19;20104;-85
2022/11/01 07:29:19;;;;;;;12.02;9.48;;;15.20;67.50;;;14.08;63.57;101080.28;12246900;19;20581;-85
2022/11/01 07:33:21;;;;;;;14.00;10.38;;;15.20;67.70;;;14.39;63.61;101118.53;12249117;19;20010;-85
2022/11/01 07:37:26;;;;;;;15.05;10.90;;;15.30;68.20;;;14.37;63.68;101121.28;12247317;19;20388;-86
2022/11/01 07:41:28;;;;;;;;;;;15.30;68.60;;;14.35;63.62;101106.56;12250298;19;20031;-85
2022/11/01 07:45:33;;;;;;;11.73;8.70;;;15.40;68.40;;;14.50;63.73;101118.69;12245729;19;19959;-84
2022/11/01 07:49:34;;;;;;;11.90;9.20;;;15.50;68.70;;;14.53;63.61;101122.94;12244375;19;20018;-85
2022/11/01 07:53:36;;;;;;;14.60;9.65;;;15.50;68.70;;;14.66;63.85;101144.81;12251236;19;20018;-86
2022/11/01 07:57:40;;;;;;;15.93;11.75;;;15.80;69.30;;;14.42;63.86;101097.34;12245905;19;20861;-86
2022/11/01 08:01:41;;;;;;;15.82;10.20;;;15.70;69.60;;;14.75;63.84;101138.16;12257905;19;20356;-86
2022/11/01 08:05:45;;;;;;;15.05;10.90;;;15.70;69.30;;;14.81;63.87;101145.63;12260043;19;20014;-85
2022/11/01 08:09:48;;;;;;;13.77;9.85;;;15.80;69.30;;;14.72;63.77;101133.09;12256653;19;20107;-85
2022/11/01 08:13:49;;;;;;;15.20;9.80;;;16.10;70.20;;;14.94;63.91;101154.38;12252907;19;20082;-85
2022/11/01 08:17:53;;;;;;;14.25;10.10;;;15.90;69.20;;;14.92;64.04;101164.16;12253351;19;20098;-85
2022/11/01 08:21:58;;;;;;;12.30;9.90;;;16.00;69.10;;;14.93;64.10;101160.59;12256521;19;20022;-85
2022/11/01 08:26:02;;;;;;;;;;;16.00;69.40;;;14.80;63.95;101133.44;12255516;19;20046;-86
2022/11/01 08:30:04;;;;;;;15.25;9.63;;;16.10;69.10;;;15.16;63.87;101184.50;12253426;19;19949;-85
2022/11/01 08:34:06;;;;;;;11.82;9.80;;;16.10;69.00;;;15.13;64.00;101168.94;12255835;19;20022;-85
2022/11/01 08:38:09;;;;;;;22.67;9.70;;;16.20;69.30;;;14.92;64.16;101124.69;12246033;19;20027;-85
2022/11/01 08:42:10;;;;;;;12.07;9.18;;;16.40;69.70;;;15.33;64.12;101178.09;12254918;19;20085;-85
2022/11/01 08:46:12;;;;;;;13.93;10.23;;;16.30;69.90;;;15.35;64.33;101157.78;12255314;19;20006;-84
2022/11/01 08:50:16;;;;;;;12.18;10.07;;;16.40;70.00;;;15.29;64.44;101124.00;12257883;19;20041;-85
2022/11/01 08:54:18;;;;;;;17.50;10.23;;;16.40;70.10;;;15.47;64.23;101128.84;12258438;19;20007;-85
2022/11/01 08:58:19;;;;;;;15.32;10.68;;;16.50;70.10;;;15.67;64.32;101150.31;12256575;19;20018;-85
2022/11/01 09:02:21;;;;;;;16.08;10.30;;;16.80;70.30;;;15.71;64.41;101143.91;12260549;19;20021;-87
2022/11/01 09:06:24;;;;;;;11.05;9.07;;;16.70;70.00;;;15.85;64.51;101146.41;12259210;19;20035;-86
2022/11/01 09:10:29;;;;;;;12.98;9.75;;;16.80;70.10;;;15.90;64.45;101140.81;12262666;19;20056;-85
2022/11/01 09:14:30;;;;;;;11.15;8.25;;;16.90;70.10;;;15.86;64.64;101116.50;12263450;19;20334;-86
2022/11/01 09:18:33;;;;;;;11.93;8.80;;;17.00;69.70;;;16.03;64.46;101140.78;12259771;19;20021;-85
2022/11/01 09:22:36;;;;;;;10.65;8.18;;;17.10;69.70;;;16.21;64.63;101150.00;12263635;19;20362;-86
2022/11/01 09:26:38;;;;;;;13.82;9.38;;;17.20;70.10;;;16.22;64.46;101129.75;12260063;19;20032;-86
2022/11/01 09:30:40;;;;;;;13.13;8.50;;;17.30;70.20;;;16.42;64.44;101133.56;12257872;19;20026;-86
2022/11/01 09:34:41;;;;;;;12.80;9.07;;;17.60;69.80;;;16.45;64.83;101114.91;12255765;19;20031;-85
2022/11/01 09:38:43;;;;;;;9.60;7.95;;;17.60;69.20;;;16.70;64.42;101146.41;12255367;19;20010;-86
2022/11/01 09:42:45;;;;;;;10.90;8.23;;;17.70;68.70;;;16.68;64.83;101145.66;12255715;19;20093;-86
2022/11/01 09:46:57;;;;;;;11.75;8.48;;;17.80;68.20;;;16.76;64.28;101153.03;12251119;19;20010;-86
2022/11/01 09:51:06;;;;;;;16.55;8.15;;;17.90;68.10;;;16.93;64.40;101186.09;12251892;19;20018;-86
2022/11/01 09:55:16;;;;;;;10.40;7.57;;;18.00;67.70;;;16.73;64.33;101148.81;12257278;19;20022;-87
2022/11/01 10:00:03;;;;;;;10.55;7.75;;;18.00;67.40;;;17.02;64.40;101167.78;12259313;19;20022;-87
2022/11/01 10:04:38;;;;;;;9.45;7.55;;;18.10;67.30;;;16.99;64.43;101177.72;12261728;19;20018;-87
2022/11/01 10:09:07;;;;;;;10.73;7.20;;;18.10;67.10;;;17.13;64.37;101193.34;12255824;19;20007;-86
2022/11/01 10:13:31;;;;;;;12.90;7.55;;;18.20;67.10;;;17.09;64.40;101183.97;12258970;19;20018;-88
2022/11/01 10:18:24;;;;;;;10.60;7.38;;;18.20;67.00;;;17.19;64.47;101173.56;12252936;19;20070;-87
2022/11/01 10:22:37;;;;;;;9.10;6.10;;;18.30;66.80;;;17.03;64.25;101123.75;12253876;19;20019;-87
2022/11/01 10:26:43;;;;;;;7.88;5.93;;;18.40;66.60;;;17.38;64.28;101173.84;12242638;19;20018;-87
2022/11/01 10:31:00;;;;;;;9.57;6.00;;;18.40;66.30;;;17.38;64.13;101180.94;12252844;19;20019;-87
2022/11/01 10:35:12;;;;;;;8.13;5.75;;;18.50;66.30;;;17.36;64.37;101152.03;12250990;19;20082;-86
2022/11/01 10:39:55;;;;;;;6.82;5.68;;;18.50;66.30;;;17.53;64.06;101187.69;12255314;19;20521;-87
2022/11/01 10:44:02;;;;;;;7.10;5.13;;;18.60;66.10;;;17.56;64.25;101168.13;12254202;19;20014;-88
2022/11/01 10:48:04;;;;;;;8.60;5.65;;;18.60;65.90;;;17.61;64.12;101165.97;12247354;19;20479;-88
2022/11/01 10:52:10;;;;;;;6.00;5.03;;;18.70;65.80;;;17.42;64.18;101126.94;12256002;19;20014;-87
2022/11/01 10:56:27;;;;;;;6.68;5.22;;;18.90;66.10;;;17.46;64.20;101128.38;12247903;19;20026;-87
2022/11/01 11:00:31;;;;;;;7.88;5.32;;;18.90;66.10;;;17.21;64.12;101077.47;12248622;19;20065;-88
2022/11/01 11:04:35;;;;;;;6.95;5.30;;;18.90;66.20;;;17.80;64.25;101171.53;12253457;19;20026;-87
2022/11/01 11:08:41;;;;;;;7.72;5.10;;;19.00;66.20;;;17.69;64.28;101142.44;12249431;19;20018;-86
2022/11/01 11:12:44;;;;;;;6.15;5.35;;;19.00;65.90;;;18.01;64.20;101189.25;12250294;19;20013;-86
2022/11/01 11:16:55;;;;;;;8.35;4.88;;;19.30;66.30;;;17.96;63.99;101171.16;12249666;19;20044;-87
2022/11/01 11:21:12;;;;;;;8.18;5.22;;;19.20;66.10;;;18.23;64.02;101191.91;12251738;19;20003;-87
2022/11/01 11:25:18;;;;;;;8.18;5.20;;;19.30;65.80;;;18.32;64.26;101185.03;12250023;19;20033;-89
2022/11/01 11:29:55;;;;;;;7.88;4.93;;;19.60;66.10;;;18.37;63.91;101185.50;12246334;19;20014;-86
2022/11/01 11:34:25;;;;;;;7.53;4.63;;;19.50;65.80;;;18.58;63.89;101207.56;12249188;19;20023;-86
2022/11/01 11:38:46;;;;;;;6.05;4.07;;;19.60;65.60;;;18.68;63.96;101204.16;12241814;19;20070;-86
2022/11/01 11:42:50;;;;;;;9.10;4.20;;;19.70;65.60;;;18.72;64.10;101208.25;12255535;19;20023;-85
2022/11/01 11:46:56;;;;;;;4.22;3.83;;;19.80;65.30;;;18.83;63.79;101212.69;12250366;19;20023;-86
2022/11/01 11:51:05;;;;;;;5.47;3.88;;;19.90;65.20;;;18.85;63.88;101206.31;12251432;19;20027;-85
2022/11/01 11:55:34;;;;;;;7.35;4.00;;;20.00;64.90;;;18.95;64.01;101217.78;12247404;19;20015;-87
2022/11/01 11:59:39;;;;;;;4.55;3.60;;;20.00;64.80;;;18.92;63.82;101203.97;12251964;19;20027;-85
2022/11/01 12:03:49;;;;;;;4.25;3.67;;;20.10;64.80;;;18.94;63.67;101207.34;12248497;19;20510;-86
2022/11/01 12:07:53;;;;;;;5.35;3.60;;;20.10;64.80;;;18.91;63.86;101192.56;12252218;19;20012;-85
2022/11/01 12:12:04;;;;;;;5.07;3.28;;;20.30;64.90;;;19.16;63.63;101227.56;12257443;19;20011;-85
2022/11/01 12:16:13;;;;;;;5.80;3.50;;;20.20;64.70;;;19.21;63.81;101233.34;12248925;19;20015;-85
2022/11/01 12:20:22;;;;;;;4.40;3.20;;;20.30;64.70;;;19.24;63.63;101235.72;12249636;19;20018;-86
2022/11/01 12:24:35;;;;;;;4.03;2.95;;;20.30;64.30;;;19.29;63.42;101233.53;12250229;19;20106;-85
2022/11/01 12:28:43;;;;;;;8.02;3.13;;;20.30;64.40;;;19.26;63.74;101223.19;12249906;19;20363;-85
2022/11/01 12:33:31;;;;;;;5.07;3.45;;;20.60;64.60;;;19.23;63.77;101218.16;12249379;19;20078;-85
2022/11/01 12:38:31;;;;;;;3.00;2.70;;;20.30;64.50;;;18.99;63.77;101182.16;12244628;19;20474;-84
2022/11/01 12:42:57;;;;;;;3.60;3.08;;;20.40;64.90;;;19.33;63.51;101236.75;12246402;19;20056;-85
2022/11/01 12:47:18;;;;;;;7.72;2.83;;;20.40;65.20;;;19.32;63.43;101241.22;12250253;19;20026;-86
2022/11/01 12:51:35;;;;;;;4.13;3.15;;;20.40;65.40;;;19.01;63.41;101209.38;12264358;19;20011;-85
2022/11/01 12:55:39;;;;;;;3.75;3.05;;;20.30;65.60;;;18.97;63.69;101194.69;12260008;19;20010;-85
2022/11/01 12:59:43;;;;;;;3.00;2.80;;;20.40;66.50;;;19.39;63.37;101249.50;12257799;19;20011;-86
2022/11/01 13:04:30;;;;;;;3.35;2.92;;;20.30;65.70;;;19.10;63.69;101202.44;12264336;19;20492;-86
2022/11/01 13:08:59;;;;;;;5.78;3.80;;;20.40;65.90;;;19.36;63.31;101234.69;12257937;19;20022;-86
2022/11/01 13:13:22;;;;;;;3.47;3.17;;;20.30;65.60;;;19.39;63.65;101260.94;12264688;19;20476;-85
2022/11/01 13:17:48;;;;;;;4.07;2.78;;;20.30;65.60;;;19.33;63.49;101247.34;12254711;19;20019;-86
2022/11/01 13:22:00;;;;;;;3.38;3.05;;;20.40;65.70;;;19.39;63.48;101252.16;12262379;19;20013;-86
2022/11/01 13:26:30;;;;;;;4.30;3.22;;;20.40;65.60;;;19.13;63.28;101219.91;12261230;19;20346;-86
2022/11/01 13:30:38;;;;;;;9.35;3.70;;;20.30;65.20;;;19.46;63.26;101254.13;12263524;19;20018;-86
2022/11/01 13:34:54;;;;;;;6.80;3.40;;;20.40;65.60;;;19.45;63.57;101246.31;12263910;19;20040;-87
2022/11/01 13:39:25;;;;;;;3.97;2.95;;;20.40;65.40;;;19.39;63.33;101236.25;12268904;19;20030;-88
2022/11/01 13:43:42;;;;;;;7.15;2.90;;;20.30;65.50;;;19.36;63.33;101232.06;12263293;19;20477;-85
2022/11/01 13:48:14;;;;;;;3.90;2.97;;;20.40;65.60;;;19.52;63.18;101252.75;12257289;19;20369;-85
2022/11/01 13:52:25;;;;;;;3.63;2.95;;;20.60;65.60;;;19.41;63.51;101240.41;12260888;19;20361;-85
2022/11/01 13:56:38;;;;;;;4.45;3.75;;;20.40;65.30;;;19.55;63.30;101270.22;12257701;19;20718;-88
2022/11/01 14:00:53;;;;;;;4.03;3.60;;;20.40;65.40;;;19.54;63.16;101253.47;12257995;19;20011;-86
2022/11/01 14:05:09;;;;;;;3.15;2.85;;;20.40;65.50;;;19.52;63.23;101252.75;12257921;19;20372;-86
2022/11/01 14:09:24;;;;;;;4.07;3.25;;;20.50;65.40;;;19.62;63.37;101274.03;12254550;19;20031;-87
2022/11/01 14:13:44;;;;;;;3.13;2.83;;;20.50;65.60;;;19.40;63.21;101227.31;12259834;19;20127;-86
2022/11/01 14:17:51;;;;;;;3.05;2.65;;;20.50;65.50;;;19.66;63.00;101264.91;12256999;19;20410;-86
2022/11/01 14:21:53;;;;;;;3.30;2.83;;;20.50;65.40;;;19.57;63.40;101249.72;12260873;19;20028;-86
2022/11/01 14:26:23;;;;;;;4.30;3.10;;;20.70;65.40;;;19.66;63.17;101270.19;12260145;19;20023;-86
2022/11/01 14:30:31;;;;;;;4.13;3.10;;;20.60;65.20;;;19.65;63.26;101261.34;12257386;19;20571;-87
2022/11/01 14:34:34;;;;;;;3.55;2.90;;;20.60;65.30;;;19.68;63.12;101276.19;12257710;19;20018;-87
2022/11/01 14:38:45;;;;;;;4.88;3.40;;;20.70;65.20;;;19.66;63.00;101278.97;12256887;19;20014;-87
2022/11/01 14:42:49;;;;;;;3.67;2.88;;;20.60;65.10;;;19.66;63.08;101284.28;12257880;19;20018;-86
2022/11/01 14:46:55;;;;;;;3.15;2.85;;;20.50;64.90;;;19.67;63.32;101299.19;12254182;19;20018;-86
2022/11/01 14:51:18;;;;;;;6.35;3.65;;;20.50;65.00;;;19.68;62.88;101302.69;12257031;19;20042;-86
2022/11/01 14:55:30;;;;;;;3.83;3.03;;;20.50;65.30;;;19.69;63.07;101301.72;12254514;19;20369;-86
2022/11/01 14:59:32;;;;;;;4.35;3.17;;;20.60;65.20;;;19.71;63.00;101299.78;12254657;19;20036;-86
2022/11/01 15:03:33;;;;;;;3.25;2.90;;;20.70;65.20;;;19.66;62.94;101299.34;12252660;19;20010;-86
2022/11/01 15:07:39;;;;;;;5.32;3.25;;;20.60;65.10;;;19.61;63.02;101302.34;12251384;19;20025;-86
2022/11/01 15:11:40;;;;;;;;;;;20.50;65.00;;;19.55;62.66;101300.22;12255006;19;20014;-86
2022/11/01 15:15:42;;;;;;;3.15;2.78;;;20.50;65.10;;;19.56;63.15;101301.06;12253024;19;19990;-86
2022/11/01 15:19:45;;;;;;;2.70;2.50;;;20.50;64.80;;;19.54;63.07;101295.03;12254382;19;20045;-86
2022/11/01 15:23:49;;;;;;;3.22;2.92;;;20.50;64.80;;;19.58;63.01;101307.91;12251783;19;20029;-86
2022/11/01 15:27:52;;;;;;;6.03;2.80;;;20.50;64.90;;;19.51;62.73;101295.28;12249759;19;20016;-85
2022/11/01 15:31:59;;;;;;;4.93;3.05;;;20.50;64.80;;;19.54;62.74;101308.28;12251447;19;20053;-85
2022/11/01 15:36:07;;;;;;;5.28;3.25;;;20.40;64.70;;;19.31;62.83;101281.03;12247742;19;20078;-85
2022/11/01 15:40:35;;;;;;;3.67;2.80;;;20.40;64.60;;;19.37;62.99;101296.44;12252218;19;20015;-85
2022/11/01 15:44:37;;;;;;;6.40;3.35;;;20.50;64.60;;;19.50;62.77;101314.81;12251219;19;20022;-85
2022/11/01 15:48:38;;;;;;;4.50;3.00;;;20.30;64.40;;;19.43;62.65;101317.13;12240389;19;20007;-86
2022/11/01 15:52:44;;;;;;;4.25;3.30;;;20.30;64.40;;;19.22;62.86;101287.97;12251569;19;20015;-85
2022/11/01 15:56:54;;;;;;;3.45;3.15;;;20.20;64.30;;;19.32;62.94;101319.81;12247261;19;20015;-86
2022/11/01 16:01:11;;;;;;;3.97;3.33;;;20.20;64.30;;;19.35;62.79;101335.47;12248809;19;20007;-86
2022/11/01 16:05:19;;;;;;;4.53;2.90;;;20.20;64.20;;;19.26;62.90;101321.19;12248678;19;20021;-86
2022/11/01 16:09:38;;;;;;;6.55;3.35;;;20.10;64.10;;;19.22;62.70;101322.38;12242321;19;20755;-86
2022/11/01 16:13:49;;;;;;;5.15;2.97;;;20.10;64.00;;;19.02;62.73;101301.03;12249632;19;20014;-86
2022/11/01 16:17:51;;;;;;;4.03;3.40;;;20.00;63.90;;;19.18;62.83;101335.03;12248883;19;20015;-85
2022/11/01 16:21:53;;;;;;;4.18;3.28;;;20.00;63.70;;;18.85;62.78;101288.34;12257951;19;20011;-86
2022/11/01 16:26:07;;;;;;;5.07;3.83;;;19.90;63.60;;;18.91;62.63;101316.94;12263046;19;20077;-86
2022/11/01 16:30:38;;;;;;;4.07;3.60;;;19.90;63.60;;;19.01;62.70;101351.47;12262432;19;20400;-86
2022/11/01 16:34:40;;;;;;;3.75;3.40;;;19.80;63.60;;;18.87;62.67;101341.97;12264249;19;20006;-86
2022/11/01 16:38:50;;;;;;;4.35;3.55;;;19.70;63.50;;;18.74;62.61;101330.66;12262949;19;20082;-85
2022/11/01 16:42:57;;;;;;;4.85;3.70;;;19.70;63.60;;;18.73;62.58;101345.69;12263437;19;20014;-86
2022/11/01 16:46:59;;;;;;;5.25;4.00;;;19.60;63.40;;;18.84;62.58;101367.84;12260411;19;20472;-86
2022/11/01 16:51:02;;;;;;;5.75;4.10;;;19.60;63.40;;;18.68;62.30;101358.44;12261974;19;20066;-86
2022/11/01 16:55:04;;;;;;;5.80;4.03;;;19.80;63.50;;;18.66;62.38;101365.69;12262254;19;20034;-86
2022/11/01 16:59:33;;;;;;;7.30;4.10;;;19.50;63.40;;;18.63;62.38;101378.28;12262867;19;20338;-85
2022/11/01 17:03:34;;;;;;;4.57;3.95;;;19.40;63.40;;;18.55;62.61;101371.81;12260354;19;20037;-86
2022/11/01 17:07:35;;;;;;;4.57;4.07;;;19.30;63.30;;;18.55;62.57;101384.19;12258229;19;20011;-87